Saint Martin Island, Guadeloupe
Current Conditions -  °F | °C
As of 9:00 PM on Thursday 27 Nov 2014 (Local Time) from TNCM Reporting Station
Few Clouds Few Clouds  
Wind Chill: 79°   Ceiling: Unl
Heat Index: 81°   Visibility: 6mi
Dew Point: 68°   Wind: 3mph
Humidity: 69%   Direction: 80°E
Pressure: 29.97"   Gusts: NA
Location:  18.09°N, 63.05°W
Report Text: TNCM 280100Z 08003KT 9999 FEW022 26/20 Q1015 A2997 NOSIG
Loading
Personal Weather Stations






























Interactive Weather Map New forecast layout! Learn more

10-Day Weather Forecast

Advertisements
Track Severe Weather on mobile